createdAt,value
2023-03-23T00:00:34.973Z,0
2023-03-23T00:01:51.099Z,0
2023-03-23T00:03:07.245Z,0
2023-03-23T00:04:23.385Z,0
2023-03-23T00:05:39.526Z,0
2023-03-23T00:06:55.649Z,0
2023-03-23T00:08:11.779Z,0
2023-03-23T00:09:27.936Z,0
2023-03-23T00:10:44.062Z,0
2023-03-23T00:12:00.205Z,0
2023-03-23T00:13:16.322Z,0
2023-03-23T00:14:32.470Z,0
2023-03-23T00:15:48.605Z,0
2023-03-23T00:17:04.746Z,0
2023-03-23T00:18:20.886Z,0
2023-03-23T00:19:37.017Z,0
2023-03-23T00:20:53.153Z,0
2023-03-23T00:22:09.302Z,0
2023-03-23T00:23:25.478Z,0
2023-03-23T00:24:40.718Z,0
2023-03-23T00:25:55.933Z,0
2023-03-23T00:27:12.054Z,0
2023-03-23T00:28:28.195Z,0
2023-03-23T00:29:44.336Z,0
2023-03-23T00:31:00.468Z,0
2023-03-23T00:32:16.620Z,0
2023-03-23T00:33:32.745Z,0
2023-03-23T00:34:48.880Z,0
2023-03-23T00:36:05.019Z,0
2023-03-23T00:37:21.145Z,0
2023-03-23T00:38:37.290Z,0
2023-03-23T00:39:53.419Z,0
2023-03-23T00:41:09.561Z,0
2023-03-23T00:42:25.702Z,0
2023-03-23T00:43:41.820Z,0
2023-03-23T00:44:57.965Z,0
2023-03-23T00:46:14.115Z,0
2023-03-23T00:47:30.238Z,0
2023-03-23T00:48:46.380Z,0
2023-03-23T00:50:02.498Z,0
2023-03-23T00:51:18.652Z,0
2023-03-23T00:52:34.788Z,0
2023-03-23T00:53:50.924Z,0
2023-03-23T00:55:07.048Z,0
2023-03-23T00:56:23.194Z,0
2023-03-23T00:57:39.400Z,0
2023-03-23T00:58:54.632Z,0
2023-03-23T01:00:09.836Z,0
2023-03-23T01:01:25.982Z,0
2023-03-23T01:02:42.110Z,0
2023-03-23T01:03:58.248Z,0
2023-03-23T01:05:14.389Z,0
2023-03-23T01:06:30.506Z,0
2023-03-23T01:07:46.661Z,0
2023-03-23T01:09:02.789Z,0
2023-03-23T01:10:18.940Z,0
2023-03-23T01:11:35.071Z,0
2023-03-23T01:12:51.187Z,0
2023-03-23T01:14:07.351Z,0
2023-03-23T01:15:23.483Z,0
2023-03-23T01:16:39.620Z,0
2023-03-23T01:17:55.747Z,0
2023-03-23T01:19:11.881Z,0
2023-03-23T01:20:28.027Z,0
2023-03-23T01:21:44.168Z,0
2023-03-23T01:23:00.292Z,0
2023-03-23T01:24:16.425Z,0
2023-03-23T01:25:32.563Z,0
2023-03-23T01:26:48.715Z,0
2023-03-23T01:29:20.963Z,0
2023-03-23T01:30:37.109Z,0
2023-03-23T01:31:53.301Z,0
2023-03-23T01:33:08.535Z,0
2023-03-23T01:34:24.729Z,0
2023-03-23T01:35:39.943Z,0
2023-03-23T01:36:56.076Z,0
2023-03-23T01:38:12.219Z,0
2023-03-23T01:39:28.338Z,0
2023-03-23T01:40:44.487Z,0
2023-03-23T01:42:00.600Z,0
2023-03-23T01:43:16.767Z,0
2023-03-23T01:44:32.887Z,0
2023-03-23T01:45:49.022Z,0
2023-03-23T01:47:05.154Z,0
2023-03-23T01:48:21.302Z,0
2023-03-23T01:49:37.446Z,0
2023-03-23T01:50:53.568Z,0
2023-03-23T01:52:09.712Z,0
2023-03-23T01:53:25.835Z,0
2023-03-23T01:54:41.981Z,0
2023-03-23T01:55:58.111Z,0
2023-03-23T01:57:14.250Z,0
2023-03-23T01:58:30.389Z,0
2023-03-23T01:59:46.517Z,0
2023-03-23T02:01:02.656Z,0
2023-03-23T02:02:18.798Z,0
2023-03-23T02:03:34.936Z,0
2023-03-23T02:04:51.065Z,0
2023-03-23T02:06:07.197Z,0
2023-03-23T02:07:23.390Z,0
2023-03-23T02:08:38.624Z,0
2023-03-23T02:09:53.840Z,0
2023-03-23T02:11:08.985Z,0
2023-03-23T02:12:25.131Z,0
2023-03-23T02:13:41.264Z,0
2023-03-23T02:14:57.381Z,0
2023-03-23T02:16:13.518Z,0
2023-03-23T02:17:29.673Z,0
2023-03-23T02:18:45.808Z,0
2023-03-23T02:20:01.934Z,0
2023-03-23T02:21:18.070Z,0
2023-03-23T02:22:34.200Z,0
2023-03-23T02:23:50.351Z,0
2023-03-23T02:25:06.483Z,0
2023-03-23T02:26:22.624Z,0
2023-03-23T02:27:38.754Z,0
2023-03-23T02:28:54.883Z,0
2023-03-23T02:30:11.033Z,0
2023-03-23T02:31:27.166Z,0
2023-03-23T02:32:43.300Z,0
2023-03-23T02:33:59.424Z,0
2023-03-23T02:35:15.564Z,0
2023-03-23T02:36:31.721Z,0
2023-03-23T02:37:47.854Z,0
2023-03-23T02:39:03.988Z,0
2023-03-23T02:40:20.117Z,0
2023-03-23T02:41:36.248Z,0
2023-03-23T02:42:52.392Z,0
2023-03-23T02:44:08.519Z,0
2023-03-23T02:45:24.000Z,0
2023-03-23T02:46:40.804Z,0
2023-03-23T02:47:56.925Z,0
2023-03-23T02:49:13.067Z,0
2023-03-23T02:50:29.214Z,0
2023-03-23T02:51:45.332Z,0
2023-03-23T02:53:01.470Z,0
2023-03-23T02:54:17.618Z,0
2023-03-23T02:55:33.761Z,0
2023-03-23T02:56:49.899Z,0
2023-03-23T02:58:06.084Z,0
2023-03-23T02:59:21.348Z,0
2023-03-23T03:00:36.545Z,0
2023-03-23T03:01:52.677Z,0
2023-03-23T03:03:08.823Z,0
2023-03-23T03:04:24.941Z,0
2023-03-23T03:05:41.098Z,0
2023-03-23T03:06:57.236Z,0
2023-03-23T03:08:13.358Z,0
2023-03-23T03:09:29.491Z,0
2023-03-23T03:10:45.639Z,0
2023-03-23T03:12:01.775Z,0
2023-03-23T03:13:17.921Z,0
2023-03-23T03:14:34.052Z,0
2023-03-23T03:15:50.175Z,0
2023-03-23T03:17:06.320Z,0
2023-03-23T03:18:22.461Z,0
2023-03-23T03:19:38.583Z,0
2023-03-23T03:20:54.727Z,0
2023-03-23T03:22:10.857Z,0
2023-03-23T03:23:27.000Z,0
2023-03-23T03:24:43.136Z,0
2023-03-23T03:25:59.273Z,0
2023-03-23T03:27:15.409Z,0
2023-03-23T03:28:31.533Z,0
2023-03-23T03:29:47.666Z,0
2023-03-23T03:31:03.823Z,0
2023-03-23T03:32:20.023Z,0
2023-03-23T03:33:35.250Z,0
2023-03-23T03:34:50.457Z,0
2023-03-23T03:36:06.603Z,0
2023-03-23T03:37:22.722Z,0
2023-03-23T03:38:38.859Z,0
2023-03-23T03:39:54.998Z,0
2023-03-23T03:41:11.145Z,0
2023-03-23T03:42:27.269Z,0
2023-03-23T03:43:43.408Z,0
2023-03-23T03:44:59.535Z,0
2023-03-23T03:46:15.674Z,0
2023-03-23T03:47:31.819Z,0
2023-03-23T03:48:47.954Z,0
2023-03-23T03:50:04.084Z,0
2023-03-23T03:51:20.219Z,0
2023-03-23T03:52:36.353Z,0
2023-03-23T03:53:52.506Z,0
2023-03-23T03:55:08.639Z,0
2023-03-23T03:56:24.782Z,0
2023-03-23T03:57:40.897Z,0
2023-03-23T03:58:57.039Z,0
2023-03-23T04:00:13.198Z,0
2023-03-23T04:01:29.327Z,0
2023-03-23T04:02:45.448Z,0
2023-03-23T04:04:01.591Z,0
2023-03-23T04:05:17.730Z,0
2023-03-23T04:06:33.929Z,0
2023-03-23T04:07:49.173Z,0
2023-03-23T04:09:05.355Z,0
2023-03-23T04:10:20.562Z,0
2023-03-23T04:11:36.699Z,0
2023-03-23T04:12:52.841Z,0
2023-03-23T04:14:08.970Z,0
2023-03-23T04:15:25.106Z,0
2023-03-23T04:16:41.256Z,0
2023-03-23T04:17:57.388Z,0
2023-03-23T04:19:13.509Z,0
2023-03-23T04:20:29.658Z,0
2023-03-23T04:21:45.787Z,0
2023-03-23T04:23:01.922Z,0
2023-03-23T04:24:18.057Z,0
2023-03-23T04:25:34.202Z,0
2023-03-23T04:26:50.325Z,0
2023-03-23T04:28:06.474Z,0
2023-03-23T04:29:22.623Z,0
2023-03-23T04:30:38.752Z,0
2023-03-23T04:31:54.883Z,0
2023-03-23T04:33:11.019Z,0
2023-03-23T04:34:27.149Z,0
2023-03-23T04:35:43.293Z,0
2023-03-23T04:36:59.435Z,0
2023-03-23T04:38:15.567Z,0
2023-03-23T04:39:31.698Z,0
2023-03-23T04:40:47.823Z,0
2023-03-23T04:42:04.036Z,0
2023-03-23T04:43:19.270Z,0
2023-03-23T04:44:34.486Z,0
2023-03-23T04:45:50.626Z,0
2023-03-23T04:47:06.751Z,0
2023-03-23T04:48:22.903Z,0
2023-03-23T04:49:39.032Z,0
2023-03-23T04:50:55.156Z,0
2023-03-23T04:52:11.304Z,0
2023-03-23T04:53:27.433Z,0
2023-03-23T04:54:43.567Z,0
2023-03-23T04:55:59.701Z,0
2023-03-23T04:57:15.837Z,0
2023-03-23T04:58:31.989Z,0
2023-03-23T04:59:48.117Z,0
2023-03-23T05:01:04.258Z,4
2023-03-23T05:02:20.380Z,4
2023-03-23T05:03:36.532Z,4
2023-03-23T05:04:52.670Z,4
2023-03-23T05:06:08.807Z,4
2023-03-23T05:07:24.935Z,4
2023-03-23T05:08:41.066Z,8
2023-03-23T05:09:57.212Z,4
2023-03-23T05:11:13.355Z,8
2023-03-23T05:12:29.480Z,8
2023-03-23T05:13:45.628Z,8
2023-03-23T05:15:01.757Z,12
2023-03-23T05:16:17.949Z,16
2023-03-23T05:17:33.191Z,16
2023-03-23T05:18:48.400Z,24
2023-03-23T05:20:04.532Z,28
2023-03-23T05:21:20.670Z,32
2023-03-23T05:22:36.808Z,36
2023-03-23T05:23:52.939Z,40
2023-03-23T05:25:09.072Z,52
2023-03-23T05:26:25.207Z,64
2023-03-23T05:27:41.358Z,80
2023-03-23T05:28:57.489Z,96
2023-03-23T05:30:13.617Z,92
2023-03-23T05:31:29.757Z,84
2023-03-23T05:32:45.889Z,100
2023-03-23T05:34:02.035Z,100
2023-03-23T05:35:18.180Z,108
2023-03-23T05:36:34.309Z,128
2023-03-23T05:37:50.443Z,144
2023-03-23T05:39:06.575Z,148
2023-03-23T05:40:22.719Z,128
2023-03-23T05:41:38.845Z,128
2023-03-23T05:42:54.978Z,136
2023-03-23T05:44:11.119Z,140
2023-03-23T05:45:27.258Z,156
2023-03-23T05:46:43.403Z,168
2023-03-23T05:47:59.544Z,180
2023-03-23T05:49:15.672Z,180
2023-03-23T05:50:31.860Z,176
2023-03-23T05:51:47.090Z,196
2023-03-23T05:53:03.289Z,220
2023-03-23T05:54:18.493Z,248
2023-03-23T05:55:34.630Z,268
2023-03-23T05:56:50.771Z,292
2023-03-23T05:58:06.916Z,344
2023-03-23T05:59:23.038Z,336
2023-03-23T06:00:39.181Z,416
2023-03-23T06:01:55.307Z,492
2023-03-23T06:03:11.454Z,536
2023-03-23T06:04:27.604Z,592
2023-03-23T06:05:43.729Z,552
2023-03-23T06:06:59.868Z,540
2023-03-23T06:08:15.995Z,544
2023-03-23T06:09:32.136Z,540
2023-03-23T06:10:48.278Z,600
2023-03-23T06:12:04.400Z,716
2023-03-23T06:13:20.551Z,748
2023-03-23T06:14:36.669Z,648
2023-03-23T06:15:52.820Z,608
2023-03-23T06:17:08.948Z,592
2023-03-23T06:18:25.081Z,588
2023-03-23T06:19:41.216Z,600
2023-03-23T06:20:57.360Z,596
2023-03-23T06:22:13.509Z,600
2023-03-23T06:23:29.633Z,632
2023-03-23T06:24:45.771Z,676
2023-03-23T06:26:01.959Z,768
2023-03-23T06:27:17.205Z,820
2023-03-23T06:28:32.405Z,752
2023-03-23T06:29:47.554Z,628
2023-03-23T06:31:03.703Z,544
2023-03-23T06:32:19.852Z,508
2023-03-23T06:33:35.985Z,488
2023-03-23T06:34:52.116Z,496
2023-03-23T06:36:08.246Z,552
2023-03-23T06:37:24.392Z,656
2023-03-23T06:38:40.531Z,796
2023-03-23T06:39:56.657Z,968
2023-03-23T06:41:12.783Z,1120
2023-03-23T06:42:28.928Z,1208
2023-03-23T06:43:45.068Z,1276
2023-03-23T06:45:01.215Z,1384
2023-03-23T06:46:17.332Z,1544
2023-03-23T06:47:33.474Z,1648
2023-03-23T06:48:49.608Z,1604
2023-03-23T06:50:05.761Z,1480
2023-03-23T06:51:21.891Z,1328
2023-03-23T06:52:38.023Z,1140
2023-03-23T06:53:54.154Z,940
2023-03-23T06:55:10.295Z,852
2023-03-23T06:56:26.442Z,880
2023-03-23T06:57:42.575Z,1036
2023-03-23T06:58:58.708Z,1296
2023-03-23T07:00:14.833Z,1448
2023-03-23T07:01:30.962Z,1416
2023-03-23T07:02:47.109Z,1348
2023-03-23T07:04:03.254Z,1280
2023-03-23T07:05:19.384Z,1228
2023-03-23T07:06:35.516Z,1104
2023-03-23T07:07:51.659Z,932
2023-03-23T07:09:07.806Z,816
2023-03-23T07:10:23.927Z,728
2023-03-23T07:11:40.068Z,668
2023-03-23T07:12:56.208Z,672
2023-03-23T07:14:12.330Z,852
2023-03-23T07:15:28.489Z,1128
2023-03-23T07:16:44.680Z,1320
2023-03-23T07:17:59.930Z,1516
2023-03-23T07:19:15.133Z,1708
2023-03-23T07:20:31.286Z,1780
2023-03-23T07:21:47.415Z,1620
2023-03-23T07:23:03.551Z,1504
2023-03-23T07:24:19.675Z,1700
2023-03-23T07:25:35.820Z,2224
2023-03-23T07:26:51.948Z,2908
2023-03-23T07:28:08.095Z,3224
2023-03-23T07:29:24.229Z,3424
2023-03-23T07:30:40.351Z,3464
2023-03-23T07:31:56.511Z,4240
2023-03-23T07:33:12.643Z,5488
2023-03-23T07:34:28.773Z,6556
2023-03-23T07:35:44.910Z,6264
2023-03-23T07:37:01.045Z,5100
2023-03-23T07:38:17.194Z,4448
2023-03-23T07:39:33.318Z,3996
2023-03-23T07:40:49.457Z,3476
2023-03-23T07:42:05.582Z,3904
2023-03-23T07:43:21.722Z,3716
2023-03-23T07:44:37.857Z,3012
2023-03-23T07:45:54.005Z,2932
2023-03-23T07:47:10.139Z,3016
2023-03-23T07:48:26.276Z,2704
2023-03-23T07:49:42.394Z,2744
2023-03-23T07:50:58.608Z,2836
2023-03-23T07:52:13.852Z,2820
2023-03-23T07:53:29.051Z,2692
2023-03-23T07:54:45.193Z,2512
2023-03-23T07:56:01.333Z,2296
2023-03-23T07:57:17.466Z,1828
2023-03-23T07:58:33.603Z,1668
2023-03-23T07:59:49.728Z,1524
2023-03-23T08:01:05.879Z,1552
2023-03-23T08:02:22.018Z,1776
2023-03-23T08:03:38.137Z,2236
2023-03-23T08:04:54.272Z,2956
2023-03-23T08:06:10.416Z,2912
2023-03-23T08:07:26.556Z,3048
2023-03-23T08:08:42.698Z,3424
2023-03-23T08:09:58.821Z,3676
2023-03-23T08:11:14.960Z,4284
2023-03-23T08:12:31.080Z,3944
2023-03-23T08:13:47.237Z,5076
2023-03-23T08:15:03.364Z,7408
2023-03-23T08:16:19.499Z,10332
2023-03-23T08:17:35.637Z,10136
2023-03-23T08:18:51.780Z,13524
2023-03-23T08:21:24.057Z,5964
2023-03-23T08:22:40.179Z,12468
2023-03-23T08:23:56.321Z,16364
2023-03-23T08:25:12.517Z,6164
2023-03-23T08:26:27.741Z,6060
2023-03-23T08:27:43.930Z,5016
2023-03-23T08:28:59.154Z,4264
2023-03-23T08:30:15.301Z,3896
2023-03-23T08:31:31.423Z,3704
2023-03-23T08:32:47.552Z,3584
2023-03-23T08:34:03.681Z,3972
2023-03-23T08:35:19.820Z,4392
2023-03-23T08:36:35.968Z,4332
2023-03-23T08:37:52.110Z,4408
2023-03-23T08:39:08.232Z,4420
2023-03-23T08:40:24.367Z,5152
2023-03-23T08:41:40.501Z,5792
2023-03-23T08:42:56.651Z,5788
2023-03-23T08:44:12.783Z,5604
2023-03-23T08:45:28.917Z,5516
2023-03-23T08:46:45.049Z,5700
2023-03-23T08:48:01.184Z,5700
2023-03-23T08:49:17.338Z,5432
2023-03-23T08:50:33.457Z,5148
2023-03-23T08:51:49.605Z,5536
2023-03-23T08:53:05.740Z,5716
2023-03-23T08:54:21.870Z,5496
2023-03-23T08:55:38.004Z,5264
2023-03-23T08:56:54.150Z,4828
2023-03-23T08:58:10.272Z,4668
2023-03-23T08:59:26.411Z,4156
2023-03-23T09:00:42.608Z,3488
2023-03-23T09:01:57.843Z,3064
2023-03-23T09:03:13.054Z,3076
2023-03-23T09:04:29.179Z,2988
2023-03-23T09:05:45.342Z,3592
2023-03-23T09:07:01.459Z,3800
2023-03-23T09:08:17.594Z,3900
2023-03-23T09:09:33.731Z,4116
2023-03-23T09:10:49.873Z,4304
2023-03-23T09:12:06.020Z,4588
2023-03-23T09:13:22.142Z,4836
2023-03-23T09:14:38.287Z,4904
2023-03-23T09:15:54.411Z,4848
2023-03-23T09:17:10.546Z,4884
2023-03-23T09:18:26.706Z,5340
2023-03-23T09:19:42.837Z,5960
2023-03-23T09:20:58.000Z,6252
2023-03-23T09:22:15.099Z,6164
2023-03-23T09:23:31.238Z,6600
2023-03-23T09:24:47.384Z,6776
2023-03-23T09:26:03.519Z,6524
2023-03-23T09:27:19.637Z,7260
2023-03-23T09:28:35.782Z,8236
2023-03-23T09:29:51.922Z,8940
2023-03-23T09:31:08.064Z,9332
2023-03-23T09:32:24.197Z,9640
2023-03-23T09:33:40.330Z,9052
2023-03-23T09:34:56.531Z,8348
2023-03-23T09:36:11.752Z,7536
2023-03-23T09:37:26.965Z,7160
2023-03-23T09:38:42.112Z,6716
2023-03-23T09:39:58.263Z,6228
2023-03-23T09:41:14.396Z,6120
2023-03-23T09:42:30.529Z,6356
2023-03-23T09:43:46.657Z,6600
2023-03-23T09:45:02.798Z,6976
2023-03-23T09:46:18.939Z,7264
2023-03-23T09:47:35.082Z,7408
2023-03-23T09:48:51.222Z,6932
2023-03-23T09:50:07.336Z,6800
2023-03-23T09:51:23.478Z,6636
2023-03-23T09:52:39.618Z,6536
2023-03-23T09:53:55.769Z,6084
2023-03-23T09:55:11.887Z,5612
2023-03-23T09:56:28.031Z,5064
2023-03-23T09:57:44.150Z,4948
2023-03-23T09:59:00.300Z,5244
2023-03-23T10:00:16.434Z,5472
2023-03-23T10:01:32.571Z,5696
2023-03-23T10:02:48.704Z,6004
2023-03-23T10:04:04.834Z,6484
2023-03-23T10:05:20.981Z,6744
2023-03-23T10:06:37.125Z,6684
2023-03-23T10:07:53.249Z,6360
2023-03-23T10:10:25.520Z,6156
2023-03-23T10:11:41.664Z,6312
2023-03-23T10:12:57.808Z,6400
2023-03-23T10:14:13.934Z,6344
2023-03-23T10:15:30.057Z,6544
2023-03-23T10:16:46.206Z,6600
2023-03-23T10:18:02.339Z,6692
2023-03-23T10:19:18.471Z,6884
2023-03-23T10:20:34.610Z,7212
2023-03-23T10:21:50.755Z,7872
2023-03-23T10:23:06.884Z,8056
2023-03-23T10:24:23.027Z,8248
2023-03-23T10:25:39.221Z,7900
2023-03-23T10:26:54.461Z,7556
2023-03-23T10:28:09.670Z,7432
2023-03-23T10:29:25.806Z,7192
2023-03-23T10:30:41.931Z,7092
2023-03-23T10:31:58.058Z,7012
2023-03-23T10:33:14.195Z,7196
2023-03-23T10:34:30.349Z,7532
2023-03-23T10:35:46.482Z,8000
2023-03-23T10:37:02.615Z,8524
2023-03-23T10:38:18.743Z,8800
2023-03-23T10:39:34.878Z,8960
2023-03-23T10:40:51.031Z,8800
2023-03-23T10:42:07.170Z,8904
2023-03-23T10:43:23.299Z,9004
2023-03-23T10:44:39.436Z,9352
2023-03-23T10:45:55.570Z,9280
2023-03-23T10:47:11.703Z,9136
2023-03-23T10:48:27.849Z,8656
2023-03-23T10:49:43.986Z,9392
2023-03-23T10:51:00.101Z,10152
2023-03-23T10:52:16.240Z,11188
2023-03-23T10:53:32.384Z,13420
2023-03-23T10:54:48.531Z,10528
2023-03-23T10:56:04.653Z,10160
2023-03-23T10:57:20.795Z,16140
2023-03-23T10:58:36.932Z,15148
2023-03-23T10:59:53.136Z,15308
2023-03-23T11:01:08.373Z,13056
2023-03-23T11:02:24.568Z,9896
2023-03-23T11:03:39.762Z,10228
2023-03-23T11:04:55.892Z,14432
2023-03-23T11:06:12.038Z,15304
2023-03-23T11:07:28.174Z,16268
2023-03-23T11:08:44.304Z,13328
2023-03-23T11:10:00.445Z,10556
2023-03-23T11:11:16.583Z,13340
2023-03-23T11:12:32.709Z,14308
2023-03-23T11:13:48.845Z,11712
2023-03-23T11:15:04.983Z,10404
2023-03-23T11:16:21.132Z,7988
2023-03-23T11:17:37.258Z,7792
2023-03-23T11:18:53.409Z,5036
2023-03-23T11:20:09.529Z,4460
2023-03-23T11:21:25.672Z,3520
2023-03-23T11:22:41.819Z,3444
2023-03-23T11:23:57.950Z,3768
2023-03-23T11:25:14.083Z,4776
2023-03-23T11:26:30.225Z,4612
2023-03-23T11:27:46.348Z,4616
2023-03-23T11:29:02.496Z,4660
2023-03-23T11:30:18.632Z,4340
2023-03-23T11:31:34.760Z,3424
2023-03-23T11:32:50.906Z,3624
2023-03-23T11:34:07.041Z,3580
2023-03-23T11:35:23.243Z,4016
2023-03-23T11:36:38.502Z,3004
2023-03-23T11:37:53.773Z,3284
2023-03-23T11:39:09.011Z,5568
2023-03-23T11:40:24.224Z,6928
2023-03-23T11:41:40.356Z,10604
2023-03-23T11:42:56.499Z,9152
2023-03-23T11:44:12.634Z,7968
2023-03-23T11:45:28.759Z,5728
2023-03-23T11:46:44.899Z,6080
2023-03-23T11:48:01.018Z,5316
2023-03-23T11:49:17.172Z,5432
2023-03-23T11:50:33.319Z,5764
2023-03-23T11:51:49.450Z,6264
2023-03-23T11:53:05.576Z,6204
2023-03-23T11:54:21.703Z,6972
2023-03-23T11:55:37.858Z,6660
2023-03-23T11:56:53.995Z,5804
2023-03-23T11:58:10.126Z,5932
2023-03-23T11:59:26.251Z,4796
2023-03-23T12:00:42.384Z,7636
2023-03-23T12:01:58.539Z,5496
2023-03-23T12:03:14.667Z,4676
2023-03-23T12:04:30.812Z,4268
2023-03-23T12:05:46.931Z,5404
2023-03-23T12:07:03.073Z,7016
2023-03-23T12:08:19.221Z,7204
2023-03-23T12:09:35.361Z,6356
2023-03-23T12:10:51.480Z,5312
2023-03-23T12:12:07.687Z,4676
2023-03-23T12:13:22.877Z,4328
2023-03-23T12:14:39.013Z,5532
2023-03-23T12:15:55.147Z,6160
2023-03-23T12:17:11.283Z,5352
2023-03-23T12:18:27.413Z,5460
2023-03-23T12:19:43.569Z,5880
2023-03-23T12:20:59.693Z,6180
2023-03-23T12:22:15.836Z,6100
2023-03-23T12:23:31.966Z,6480
2023-03-23T12:24:48.108Z,6052
2023-03-23T12:26:04.244Z,5360
2023-03-23T12:27:20.373Z,6920
2023-03-23T12:28:36.507Z,6608
2023-03-23T12:29:52.658Z,5920
2023-03-23T12:31:08.784Z,7164
2023-03-23T12:32:24.921Z,5236
2023-03-23T12:33:41.053Z,4576
2023-03-23T12:34:57.191Z,6100
2023-03-23T12:36:13.339Z,5204
2023-03-23T12:37:29.470Z,4712
2023-03-23T12:38:45.603Z,4324
2023-03-23T12:40:01.745Z,5632
2023-03-23T12:41:17.877Z,3292
2023-03-23T12:42:34.018Z,3960
2023-03-23T12:43:50.150Z,2916
2023-03-23T12:45:06.341Z,4796
2023-03-23T12:46:21.597Z,3980
2023-03-23T12:47:36.792Z,3824
2023-03-23T12:48:52.932Z,5320
2023-03-23T12:50:09.064Z,2912
2023-03-23T12:51:25.213Z,3736
2023-03-23T12:52:41.349Z,3672
2023-03-23T12:53:57.480Z,4384
2023-03-23T12:55:13.627Z,4672
2023-03-23T12:56:29.761Z,2668
2023-03-23T12:57:45.890Z,4368
2023-03-23T12:59:02.018Z,5024
2023-03-23T13:00:18.160Z,5508
2023-03-23T13:02:50.435Z,3304
2023-03-23T13:04:06.578Z,4432
2023-03-23T13:05:22.699Z,6024
2023-03-23T13:06:38.844Z,5728
2023-03-23T13:07:54.983Z,5696
2023-03-23T13:09:11.110Z,5024
2023-03-23T13:10:27.250Z,3104
2023-03-23T13:11:43.380Z,4104
2023-03-23T13:12:59.524Z,3824
2023-03-23T13:14:15.662Z,2588
2023-03-23T13:15:31.798Z,2128
2023-03-23T13:16:47.922Z,2152
2023-03-23T13:18:04.059Z,2048
2023-03-23T13:19:20.260Z,2024
2023-03-23T13:20:35.500Z,2960
2023-03-23T13:21:50.697Z,4308
2023-03-23T13:23:06.829Z,5368
2023-03-23T13:24:22.987Z,4456
2023-03-23T13:25:39.113Z,3856
2023-03-23T13:26:55.244Z,3428
2023-03-23T13:28:11.393Z,3116
2023-03-23T13:29:27.514Z,4328
2023-03-23T13:30:43.667Z,5160
2023-03-23T13:31:59.804Z,4832
2023-03-23T13:33:15.930Z,4548
2023-03-23T13:34:32.055Z,4800
2023-03-23T13:35:48.195Z,4552
2023-03-23T13:37:04.339Z,4116
2023-03-23T13:38:20.487Z,4648
2023-03-23T13:39:36.609Z,4588
2023-03-23T13:40:52.748Z,4172
2023-03-23T13:42:08.871Z,3948
2023-03-23T13:43:25.033Z,3300
2023-03-23T13:44:41.153Z,3060
2023-03-23T13:45:57.286Z,2932
2023-03-23T13:47:13.417Z,2544
2023-03-23T13:48:29.555Z,2020
2023-03-23T13:49:45.711Z,1504
2023-03-23T13:51:01.835Z,1472
2023-03-23T13:52:17.966Z,1364
2023-03-23T13:53:34.164Z,1348
2023-03-23T13:54:49.411Z,1512
2023-03-23T13:56:04.620Z,1740
2023-03-23T13:57:19.760Z,1472
2023-03-23T13:58:35.906Z,1376
2023-03-23T13:59:52.049Z,1356
2023-03-23T14:01:08.183Z,876
2023-03-23T14:02:24.306Z,1376
2023-03-23T14:03:40.442Z,1416
2023-03-23T14:04:56.592Z,1420
2023-03-23T14:06:12.725Z,2228
2023-03-23T14:07:28.862Z,3664
2023-03-23T14:08:44.986Z,4488
2023-03-23T14:10:01.133Z,4144
2023-03-23T14:11:17.262Z,2888
2023-03-23T14:12:33.404Z,2736
2023-03-23T14:13:49.531Z,3392
2023-03-23T14:15:05.667Z,4236
2023-03-23T14:16:21.795Z,4772
2023-03-23T14:17:37.941Z,4352
2023-03-23T14:18:54.084Z,3984
2023-03-23T14:20:10.225Z,4112
2023-03-23T14:23:58.803Z,2868
2023-03-23T14:25:14.944Z,2916
2023-03-23T14:26:31.072Z,2696
2023-03-23T14:27:47.214Z,2624
2023-03-23T14:29:03.352Z,2800
2023-03-23T14:30:19.482Z,3232
2023-03-23T14:31:35.617Z,3380
2023-03-23T14:32:51.752Z,3412
2023-03-23T14:34:07.894Z,3932
2023-03-23T14:35:24.021Z,3948
2023-03-23T14:36:40.166Z,2716
2023-03-23T14:37:56.306Z,1900
2023-03-23T14:39:12.428Z,1804
2023-03-23T14:40:28.567Z,1340
2023-03-23T14:41:44.702Z,1080
2023-03-23T14:43:00.847Z,1432
2023-03-23T14:44:17.032Z,2072
2023-03-23T14:45:32.270Z,3228
2023-03-23T14:46:47.487Z,3380
2023-03-23T14:49:19.742Z,3180
2023-03-23T14:50:35.891Z,2832
2023-03-23T14:51:52.029Z,2792
2023-03-23T14:53:08.162Z,2844
2023-03-23T14:54:24.306Z,2472
2023-03-23T14:55:40.433Z,2216
2023-03-23T14:56:56.558Z,2572
2023-03-23T14:58:12.694Z,3028
2023-03-23T14:59:28.852Z,3160
2023-03-23T15:00:44.983Z,2984
2023-03-23T15:02:01.120Z,2592
2023-03-23T15:03:17.258Z,2428
2023-03-23T15:04:33.387Z,2416
2023-03-23T15:05:49.527Z,2316
2023-03-23T15:07:05.666Z,1852
2023-03-23T15:08:21.793Z,1236
2023-03-23T15:09:37.932Z,960
2023-03-23T15:10:54.067Z,772
2023-03-23T15:12:10.214Z,576
2023-03-23T15:13:26.344Z,596
2023-03-23T15:14:42.478Z,580
2023-03-23T15:15:58.607Z,756
2023-03-23T15:17:14.754Z,1232
2023-03-23T15:18:30.957Z,1888
2023-03-23T15:19:46.184Z,2160
2023-03-23T15:21:02.374Z,1496
2023-03-23T15:22:17.594Z,1272
2023-03-23T15:23:33.719Z,1228
2023-03-23T15:24:49.857Z,1152
2023-03-23T15:26:06.001Z,1120
2023-03-23T15:27:22.127Z,1208
2023-03-23T15:28:38.271Z,1048
2023-03-23T15:29:54.399Z,712
2023-03-23T15:31:10.549Z,868
2023-03-23T15:32:26.676Z,1052
2023-03-23T15:33:42.807Z,1028
2023-03-23T15:34:58.961Z,976
2023-03-23T15:36:15.078Z,1072
2023-03-23T15:37:31.223Z,1312
2023-03-23T15:38:47.360Z,1288
2023-03-23T15:40:03.495Z,1060
2023-03-23T15:41:19.640Z,760
2023-03-23T15:42:35.771Z,832
2023-03-23T15:43:51.909Z,1532
2023-03-23T15:45:08.025Z,2268
2023-03-23T15:46:24.170Z,2152
2023-03-23T15:47:40.312Z,1664
2023-03-23T15:48:56.443Z,1412
2023-03-23T15:50:12.586Z,1256
2023-03-23T15:51:28.711Z,1232
2023-03-23T15:52:44.847Z,1096
2023-03-23T15:54:01.064Z,852
2023-03-23T15:55:16.309Z,764
2023-03-23T15:56:31.531Z,744
2023-03-23T15:59:03.787Z,592
2023-03-23T16:00:19.937Z,440
2023-03-23T16:01:36.062Z,496
2023-03-23T16:02:52.198Z,532
2023-03-23T16:04:08.355Z,504
2023-03-23T16:05:24.479Z,408
2023-03-23T16:06:40.605Z,188
2023-03-23T16:07:56.737Z,284
2023-03-23T16:09:12.872Z,464
2023-03-23T16:10:29.019Z,612
2023-03-23T16:11:45.163Z,528
2023-03-23T16:13:01.302Z,552
2023-03-23T16:14:17.418Z,568
2023-03-23T16:15:33.560Z,616
2023-03-23T16:16:49.710Z,588
2023-03-23T16:18:05.844Z,504
2023-03-23T16:19:21.979Z,360
2023-03-23T16:20:38.107Z,328
2023-03-23T16:21:54.237Z,600
2023-03-23T16:23:10.390Z,920
2023-03-23T16:24:26.523Z,992
2023-03-23T16:25:42.660Z,740
2023-03-23T16:26:58.790Z,448
2023-03-23T16:28:14.980Z,460
2023-03-23T16:29:30.213Z,640
2023-03-23T16:30:45.422Z,964
2023-03-23T16:32:01.553Z,888
2023-03-23T16:33:17.714Z,780
2023-03-23T16:34:33.849Z,764
2023-03-23T16:35:49.968Z,680
2023-03-23T16:37:06.101Z,664
2023-03-23T16:38:22.230Z,580
2023-03-23T16:39:38.391Z,572
2023-03-23T16:40:54.525Z,592
2023-03-23T16:42:10.651Z,392
2023-03-23T16:43:26.782Z,300
2023-03-23T16:44:42.914Z,312
2023-03-23T16:45:59.075Z,432
2023-03-23T16:47:15.209Z,860
2023-03-23T16:48:31.342Z,1100
2023-03-23T16:49:47.458Z,896
2023-03-23T16:51:03.591Z,856
2023-03-23T16:52:19.750Z,960
2023-03-23T16:53:35.882Z,712
2023-03-23T16:54:52.011Z,500
2023-03-23T16:56:08.138Z,484
2023-03-23T16:57:24.279Z,408
2023-03-23T16:58:40.432Z,384
2023-03-23T16:59:56.572Z,360
2023-03-23T17:01:12.692Z,340
2023-03-23T17:02:28.886Z,344
2023-03-23T17:03:44.128Z,348
2023-03-23T17:05:00.311Z,324
2023-03-23T17:06:15.530Z,308
2023-03-23T17:07:31.650Z,280
2023-03-23T17:08:47.798Z,252
2023-03-23T17:10:03.934Z,248
2023-03-23T17:11:20.074Z,248
2023-03-23T17:12:36.202Z,252
2023-03-23T17:13:52.335Z,268
2023-03-23T17:15:08.476Z,236
2023-03-23T17:16:24.613Z,200
2023-03-23T17:17:40.752Z,184
2023-03-23T17:20:13.015Z,148
2023-03-23T17:21:29.169Z,136
2023-03-23T17:22:45.302Z,120
2023-03-23T17:24:01.432Z,108
2023-03-23T17:25:17.569Z,96
2023-03-23T17:26:33.704Z,88
2023-03-23T17:27:49.843Z,80
2023-03-23T17:29:05.977Z,68
2023-03-23T17:30:22.123Z,64
2023-03-23T17:31:38.244Z,60
2023-03-23T17:32:54.382Z,56
2023-03-23T17:34:10.534Z,48
2023-03-23T17:35:26.661Z,44
2023-03-23T17:36:42.796Z,36
2023-03-23T17:37:58.981Z,28
2023-03-23T17:39:14.224Z,28
2023-03-23T17:40:29.426Z,20
2023-03-23T17:41:44.585Z,20
2023-03-23T17:43:00.729Z,8